sensor_id;sensor_type;location;lat;lon;timestamp;pressure;altitude;pressure_sealevel;temperature;humidity
68634;BME280;55625;47.072;22.192;2023-09-18T00:04:06;100139.75;;;16.86;100.00
68634;BME280;55625;47.072;22.192;2023-09-18T00:06:33;100138.16;;;16.85;100.00
68634;BME280;55625;47.072;22.192;2023-09-18T00:08:59;100139.13;;;16.82;100.00
68634;BME280;55625;47.072;22.192;2023-09-18T00:11:25;100144.56;;;16.80;100.00
68634;BME280;55625;47.072;22.192;2023-09-18T00:13:51;100152.06;;;16.77;100.00
68634;BME280;55625;47.072;22.192;2023-09-18T00:16:17;100138.22;;;16.76;100.00
68634;BME280;55625;47.072;22.192;2023-09-18T00:18:43;100136.31;;;16.73;100.00
68634;BME280;55625;47.072;22.192;2023-09-18T00:21:11;100136.97;;;16.68;100.00
68634;BME280;55625;47.072;22.192;2023-09-18T00:23:37;100134.41;;;16.70;100.00
68634;BME280;55625;47.072;22.192;2023-09-18T00:26:04;100128.88;;;16.66;100.00
68634;BME280;55625;47.072;22.192;2023-09-18T00:28:30;100130.94;;;16.66;100.00
68634;BME280;55625;47.072;22.192;2023-09-18T00:30:55;100121.06;;;16.67;100.00
68634;BME280;55625;47.072;22.192;2023-09-18T00:33:21;100123.78;;;16.61;100.00
68634;BME280;55625;47.072;22.192;2023-09-18T00:35:48;100115.66;;;16.60;100.00
68634;BME280;55625;47.072;22.192;2023-09-18T00:38:16;100124.94;;;16.55;100.00
68634;BME280;55625;47.072;22.192;2023-09-18T00:40:42;100128.09;;;16.57;100.00
68634;BME280;55625;47.072;22.192;2023-09-18T00:43:08;100114.56;;;16.57;100.00
68634;BME280;55625;47.072;22.192;2023-09-18T00:45:42;100118.41;;;16.54;100.00
68634;BME280;55625;47.072;22.192;2023-09-18T00:48:10;100115.84;;;16.56;100.00
68634;BME280;55625;47.072;22.192;2023-09-18T00:50:37;100116.66;;;16.57;100.00
68634;BME280;55625;47.072;22.192;2023-09-18T00:53:04;100103.09;;;16.57;100.00
68634;BME280;55625;47.072;22.192;2023-09-18T00:55:30;100105.00;;;16.60;100.00
68634;BME280;55625;47.072;22.192;2023-09-18T00:57:58;100104.81;;;16.64;100.00
68634;BME280;55625;47.072;22.192;2023-09-18T01:00:24;100102.94;;;16.61;100.00
68634;BME280;55625;47.072;22.192;2023-09-18T01:02:50;100106.25;;;16.68;100.00
68634;BME280;55625;47.072;22.192;2023-09-18T01:05:16;100108.63;;;16.70;100.00
68634;BME280;55625;47.072;22.192;2023-09-18T01:07:43;100099.88;;;16.64;100.00
68634;BME280;55625;47.072;22.192;2023-09-18T01:10:09;100105.78;;;16.61;100.00
68634;BME280;55625;47.072;22.192;2023-09-18T01:12:48;100097.19;;;16.61;100.00
68634;BME280;55625;47.072;22.192;2023-09-18T01:15:26;100095.13;;;16.61;100.00
68634;BME280;55625;47.072;22.192;2023-09-18T01:17:55;100100.38;;;16.63;100.00
68634;BME280;55625;47.072;22.192;2023-09-18T01:20:21;100103.22;;;16.63;100.00
68634;BME280;55625;47.072;22.192;2023-09-18T01:22:47;100104.81;;;16.64;100.00
68634;BME280;55625;47.072;22.192;2023-09-18T01:25:15;100098.59;;;16.65;100.00
68634;BME280;55625;47.072;22.192;2023-09-18T01:27:41;100087.00;;;16.60;100.00
68634;BME280;55625;47.072;22.192;2023-09-18T01:30:08;100089.28;;;16.56;100.00
68634;BME280;55625;47.072;22.192;2023-09-18T01:32:35;100098.03;;;16.52;100.00
68634;BME280;55625;47.072;22.192;2023-09-18T01:35:04;100087.34;;;16.53;100.00
68634;BME280;55625;47.072;22.192;2023-09-18T01:37:34;100090.88;;;16.48;100.00
68634;BME280;55625;47.072;22.192;2023-09-18T01:40:02;100085.16;;;16.48;100.00
68634;BME280;55625;47.072;22.192;2023-09-18T01:42:32;100085.94;;;16.48;100.00
68634;BME280;55625;47.072;22.192;2023-09-18T01:44:58;100079.13;;;16.45;100.00
68634;BME280;55625;47.072;22.192;2023-09-18T01:47:24;100076.25;;;16.45;100.00
68634;BME280;55625;47.072;22.192;2023-09-18T01:49:52;100079.91;;;16.46;100.00
68634;BME280;55625;47.072;22.192;2023-09-18T01:52:18;100079.78;;;16.40;100.00
68634;BME280;55625;47.072;22.192;2023-09-18T01:54:44;100080.75;;;16.37;100.00
68634;BME280;55625;47.072;22.192;2023-09-18T01:57:10;100087.78;;;16.36;100.00
68634;BME280;55625;47.072;22.192;2023-09-18T01:59:38;100082.53;;;16.35;100.00
68634;BME280;55625;47.072;22.192;2023-09-18T02:02:05;100088.06;;;16.38;100.00
68634;BME280;55625;47.072;22.192;2023-09-18T02:04:33;100089.03;;;16.35;100.00
68634;BME280;55625;47.072;22.192;2023-09-18T02:06:59;100090.94;;;16.38;100.00
68634;BME280;55625;47.072;22.192;2023-09-18T02:09:25;100089.66;;;16.39;100.00
68634;BME280;55625;47.072;22.192;2023-09-18T02:11:51;100087.91;;;16.42;100.00
68634;BME280;55625;47.072;22.192;2023-09-18T02:14:17;100088.38;;;16.40;100.00
68634;BME280;55625;47.072;22.192;2023-09-18T02:16:43;100094.53;;;16.48;100.00
68634;BME280;55625;47.072;22.192;2023-09-18T02:19:11;100096.19;;;16.40;100.00
68634;BME280;55625;47.072;22.192;2023-09-18T02:21:37;100096.97;;;16.40;100.00
68634;BME280;55625;47.072;22.192;2023-09-18T02:24:03;100095.69;;;16.41;100.00
68634;BME280;55625;47.072;22.192;2023-09-18T02:26:30;100100.19;;;16.33;100.00
68634;BME280;55625;47.072;22.192;2023-09-18T02:29:02;100097.16;;;16.37;100.00
68634;BME280;55625;47.072;22.192;2023-09-18T02:31:29;100099.84;;;16.40;100.00
68634;BME280;55625;47.072;22.192;2023-09-18T02:33:55;100101.31;;;16.36;100.00
68634;BME280;55625;47.072;22.192;2023-09-18T02:36:21;100098.25;;;16.39;100.00
68634;BME280;55625;47.072;22.192;2023-09-18T02:38:47;100101.47;;;16.32;100.00
68634;BME280;55625;47.072;22.192;2023-09-18T02:41:12;100106.53;;;16.37;100.00
68634;BME280;55625;47.072;22.192;2023-09-18T02:43:38;100100.19;;;16.33;100.00
68634;BME280;55625;47.072;22.192;2023-09-18T02:46:05;100110.56;;;16.31;100.00
68634;BME280;55625;47.072;22.192;2023-09-18T02:48:32;100101.34;;;16.27;100.00
68634;BME280;55625;47.072;22.192;2023-09-18T02:51:01;100106.28;;;16.26;100.00
68634;BME280;55625;47.072;22.192;2023-09-18T02:53:28;100107.56;;;16.25;100.00
68634;BME280;55625;47.072;22.192;2023-09-18T02:55:58;100106.91;;;16.21;100.00
68634;BME280;55625;47.072;22.192;2023-09-18T02:58:24;100108.19;;;16.29;100.00
68634;BME280;55625;47.072;22.192;2023-09-18T03:00:56;100108.84;;;16.24;100.00
68634;BME280;55625;47.072;22.192;2023-09-18T03:03:24;100101.19;;;16.21;100.00
68634;BME280;55625;47.072;22.192;2023-09-18T03:05:50;100099.28;;;16.18;100.00
68634;BME280;55625;47.072;22.192;2023-09-18T03:08:16;100102.16;;;16.18;100.00
68634;BME280;55625;47.072;22.192;2023-09-18T03:10:44;100105.34;;;16.20;100.00
68634;BME280;55625;47.072;22.192;2023-09-18T03:13:14;100100.94;;;16.10;100.00
68634;BME280;55625;47.072;22.192;2023-09-18T03:15:40;100093.31;;;16.07;100.00
68634;BME280;55625;47.072;22.192;2023-09-18T03:18:06;100090.75;;;16.09;100.00
68634;BME280;55625;47.072;22.192;2023-09-18T03:20:35;100096.81;;;16.02;100.00
68634;BME280;55625;47.072;22.192;2023-09-18T03:23:02;100097.13;;;16.04;100.00
68634;BME280;55625;47.072;22.192;2023-09-18T03:25:28;100095.09;;;15.95;100.00
68634;BME280;55625;47.072;22.192;2023-09-18T03:27:56;100094.13;;;15.89;100.00
68634;BME280;55625;47.072;22.192;2023-09-18T03:30:23;100098.94;;;15.83;100.00
68634;BME280;55625;47.072;22.192;2023-09-18T03:32:50;100096.38;;;15.85;100.00
68634;BME280;55625;47.072;22.192;2023-09-18T03:35:17;100099.06;;;15.89;100.00
68634;BME280;55625;47.072;22.192;2023-09-18T03:37:53;100088.59;;;15.86;100.00
68634;BME280;55625;47.072;22.192;2023-09-18T03:40:20;100096.69;;;15.96;100.00
68634;BME280;55625;47.072;22.192;2023-09-18T03:42:46;100093.66;;;15.91;100.00
68634;BME280;55625;47.072;22.192;2023-09-18T03:45:13;100089.06;;;15.93;100.00
68634;BME280;55625;47.072;22.192;2023-09-18T03:47:40;100099.56;;;15.96;100.00
68634;BME280;55625;47.072;22.192;2023-09-18T03:50:08;100098.09;;;16.01;100.00
68634;BME280;55625;47.072;22.192;2023-09-18T03:52:34;100094.94;;;15.99;100.00
68634;BME280;55625;47.072;22.192;2023-09-18T03:55:00;100094.56;;;16.06;100.00
68634;BME280;55625;47.072;22.192;2023-09-18T03:57:27;100101.91;;;16.07;100.00
68634;BME280;55625;47.072;22.192;2023-09-18T03:59:53;100098.91;;;16.01;100.00
68634;BME280;55625;47.072;22.192;2023-09-18T04:02:19;100102.06;;;16.03;100.00
68634;BME280;55625;47.072;22.192;2023-09-18T04:04:44;100106.38;;;15.99;100.00
68634;BME280;55625;47.072;22.192;2023-09-18T04:07:10;100096.50;;;16.00;100.00
68634;BME280;55625;47.072;22.192;2023-09-18T04:09:37;100092.72;;;15.94;100.00
68634;BME280;55625;47.072;22.192;2023-09-18T04:12:04;100093.81;;;15.96;100.00
68634;BME280;55625;47.072;22.192;2023-09-18T04:14:33;100094.31;;;15.95;100.00
68634;BME280;55625;47.072;22.192;2023-09-18T04:16:59;100092.72;;;15.94;100.00
68634;BME280;55625;47.072;22.192;2023-09-18T04:19:28;100090.78;;;15.91;100.00
68634;BME280;55625;47.072;22.192;2023-09-18T04:21:55;100099.06;;;15.98;100.00
68634;BME280;55625;47.072;22.192;2023-09-18T04:24:22;100087.94;;;15.91;100.00
68634;BME280;55625;47.072;22.192;2023-09-18T04:26:49;100094.44;;;15.91;100.00
68634;BME280;55625;47.072;22.192;2023-09-18T04:29:19;100088.09;;;15.87;100.00
68634;BME280;55625;47.072;22.192;2023-09-18T04:31:45;100076.66;;;15.87;100.00
68634;BME280;55625;47.072;22.192;2023-09-18T04:34:11;100082.88;;;15.86;100.00
68634;BME280;55625;47.072;22.192;2023-09-18T04:36:37;100086.34;;;15.90;100.00
68634;BME280;55625;47.072;22.192;2023-09-18T04:39:06;100090.16;;;15.96;100.00
68634;BME280;55625;47.072;22.192;2023-09-18T04:41:33;100091.59;;;16.00;100.00
68634;BME280;55625;47.072;22.192;2023-09-18T04:43:59;100092.19;;;16.04;100.00
68634;BME280;55625;47.072;22.192;2023-09-18T04:46:25;100093.63;;;16.09;100.00
68634;BME280;55625;47.072;22.192;2023-09-18T04:48:51;100091.31;;;16.22;100.00
68634;BME280;55625;47.072;22.192;2023-09-18T04:51:17;100097.69;;;16.26;100.00
68634;BME280;55625;47.072;22.192;2023-09-18T04:53:43;100097.34;;;16.33;100.00
68634;BME280;55625;47.072;22.192;2023-09-18T04:56:09;100099.34;;;16.42;100.00
68634;BME280;55625;47.072;22.192;2023-09-18T04:58:38;100101.38;;;16.51;100.00
68634;BME280;55625;47.072;22.192;2023-09-18T05:01:04;100110.91;;;16.57;100.00
68634;BME280;55625;47.072;22.192;2023-09-18T05:03:33;100100.84;;;16.61;100.00
68634;BME280;55625;47.072;22.192;2023-09-18T05:05:59;100099.53;;;16.71;100.00
68634;BME280;55625;47.072;22.192;2023-09-18T05:08:25;100102.53;;;16.77;100.00
68634;BME280;55625;47.072;22.192;2023-09-18T05:10:51;100100.72;;;16.89;100.00
68634;BME280;55625;47.072;22.192;2023-09-18T05:13:17;100099.84;;;16.97;100.00
68634;BME280;55625;47.072;22.192;2023-09-18T05:15:42;100104.53;;;17.10;100.00
68634;BME280;55625;47.072;22.192;2023-09-18T05:18:08;100097.75;;;17.22;100.00
68634;BME280;55625;47.072;22.192;2023-09-18T05:20:35;100105.69;;;17.27;100.00
68634;BME280;55625;47.072;22.192;2023-09-18T05:23:00;100103.81;;;17.38;100.00
68634;BME280;55625;47.072;22.192;2023-09-18T05:25:29;100094.66;;;17.49;100.00
68634;BME280;55625;47.072;22.192;2023-09-18T05:27:58;100099.31;;;17.61;100.00
68634;BME280;55625;47.072;22.192;2023-09-18T05:30:31;100102.41;;;17.73;100.00
68634;BME280;55625;47.072;22.192;2023-09-18T05:33:01;100097.38;;;17.82;100.00
68634;BME280;55625;47.072;22.192;2023-09-18T05:35:35;100092.13;;;17.95;100.00
68634;BME280;55625;47.072;22.192;2023-09-18T05:38:04;100088.34;;;18.04;100.00
68634;BME280;55625;47.072;22.192;2023-09-18T05:40:31;100084.78;;;18.09;100.00
68634;BME280;55625;47.072;22.192;2023-09-18T05:42:58;100084.97;;;18.20;100.00
68634;BME280;55625;47.072;22.192;2023-09-18T05:45:24;100083.59;;;18.16;100.00
68634;BME280;55625;47.072;22.192;2023-09-18T05:47:51;100091.41;;;18.15;100.00
68634;BME280;55625;47.072;22.192;2023-09-18T05:50:19;100086.38;;;18.10;100.00
68634;BME280;55625;47.072;22.192;2023-09-18T05:52:47;100077.56;;;18.14;100.00
68634;BME280;55625;47.072;22.192;2023-09-18T05:55:16;100086.75;;;18.03;100.00
68634;BME280;55625;47.072;22.192;2023-09-18T05:57:42;100079.13;;;18.00;100.00
68634;BME280;55625;47.072;22.192;2023-09-18T06:00:09;100075.50;;;17.85;100.00
68634;BME280;55625;47.072;22.192;2023-09-18T06:02:39;100079.38;;;17.82;100.00
68634;BME280;55625;47.072;22.192;2023-09-18T06:05:06;100084.59;;;17.83;100.00
68634;BME280;55625;47.072;22.192;2023-09-18T06:07:32;100087.06;;;18.05;100.00
68634;BME280;55625;47.072;22.192;2023-09-18T06:09:59;100086.25;;;18.19;100.00
68634;BME280;55625;47.072;22.192;2023-09-18T06:12:25;100087.06;;;18.55;100.00
68634;BME280;55625;47.072;22.192;2023-09-18T06:14:52;100092.03;;;18.69;98.89
68634;BME280;55625;47.072;22.192;2023-09-18T06:17:18;100084.75;;;18.94;98.35
68634;BME280;55625;47.072;22.192;2023-09-18T06:19:44;100082.09;;;19.11;96.09
68634;BME280;55625;47.072;22.192;2023-09-18T06:22:14;100090.59;;;19.20;95.19
68634;BME280;55625;47.072;22.192;2023-09-18T06:24:40;100079.94;;;19.26;95.66
68634;BME280;55625;47.072;22.192;2023-09-18T06:27:06;100081.47;;;19.47;94.89
68634;BME280;55625;47.072;22.192;2023-09-18T06:29:35;100077.56;;;19.71;93.31
68634;BME280;55625;47.072;22.192;2023-09-18T06:32:03;100090.78;;;19.83;93.47
68634;BME280;55625;47.072;22.192;2023-09-18T06:34:29;100083.66;;;20.04;92.68
68634;BME280;55625;47.072;22.192;2023-09-18T06:36:55;100081.84;;;20.07;92.48
68634;BME280;55625;47.072;22.192;2023-09-18T06:39:21;100092.44;;;20.21;91.36
68634;BME280;55625;47.072;22.192;2023-09-18T06:41:48;100090.44;;;20.33;90.09
68634;BME280;55625;47.072;22.192;2023-09-18T06:44:15;100093.69;;;20.46;88.58
68634;BME280;55625;47.072;22.192;2023-09-18T06:46:41;100086.88;;;20.43;88.75
68634;BME280;55625;47.072;22.192;2023-09-18T06:49:07;100083.03;;;20.58;88.91
68634;BME280;55625;47.072;22.192;2023-09-18T06:51:33;100087.00;;;20.60;88.04
68634;BME280;55625;47.072;22.192;2023-09-18T06:53:58;100085.69;;;20.61;87.33
68634;BME280;55625;47.072;22.192;2023-09-18T06:56:25;100088.13;;;20.80;86.37
68634;BME280;55625;47.072;22.192;2023-09-18T06:58:51;100089.41;;;20.73;88.05
68634;BME280;55625;47.072;22.192;2023-09-18T07:01:20;100088.22;;;20.91;85.03
68634;BME280;55625;47.072;22.192;2023-09-18T07:03:47;100092.19;;;20.99;85.99
68634;BME280;55625;47.072;22.192;2023-09-18T07:06:17;100094.72;;;21.34;84.64
68634;BME280;55625;47.072;22.192;2023-09-18T07:08:46;100089.34;;;21.10;85.57
68634;BME280;55625;47.072;22.192;2023-09-18T07:11:15;100086.31;;;21.30;85.16
68634;BME280;55625;47.072;22.192;2023-09-18T07:13:41;100087.66;;;21.41;82.69
68634;BME280;55625;47.072;22.192;2023-09-18T07:16:07;100096.09;;;21.50;82.55
68634;BME280;55625;47.072;22.192;2023-09-18T07:18:33;100080.09;;;21.60;81.40
68634;BME280;55625;47.072;22.192;2023-09-18T07:20:59;100078.78;;;21.72;82.61
68634;BME280;55625;47.072;22.192;2023-09-18T07:23:25;100082.50;;;21.89;82.37
68634;BME280;55625;47.072;22.192;2023-09-18T07:25:51;100082.31;;;22.10;81.05
68634;BME280;55625;47.072;22.192;2023-09-18T07:28:16;100078.34;;;22.29;81.43
68634;BME280;55625;47.072;22.192;2023-09-18T07:30:44;100083.84;;;22.50;80.68
68634;BME280;55625;47.072;22.192;2023-09-18T07:33:11;100084.88;;;22.69;79.51
68634;BME280;55625;47.072;22.192;2023-09-18T07:35:37;100092.47;;;22.89;80.17
68634;BME280;55625;47.072;22.192;2023-09-18T07:38:04;100093.19;;;23.12;76.38
68634;BME280;55625;47.072;22.192;2023-09-18T07:40:30;100088.16;;;23.18;73.48
68634;BME280;55625;47.072;22.192;2023-09-18T07:42:56;100081.78;;;23.31;73.41
68634;BME280;55625;47.072;22.192;2023-09-18T07:45:23;100086.19;;;23.43;72.31
68634;BME280;55625;47.072;22.192;2023-09-18T07:47:49;100079.81;;;23.61;73.02
68634;BME280;55625;47.072;22.192;2023-09-18T07:50:15;100072.19;;;23.58;73.90
68634;BME280;55625;47.072;22.192;2023-09-18T07:52:42;100073.22;;;23.55;75.51
68634;BME280;55625;47.072;22.192;2023-09-18T07:55:08;100079.91;;;23.39;74.06
68634;BME280;55625;47.072;22.192;2023-09-18T07:57:35;100082.13;;;23.10;73.94
68634;BME280;55625;47.072;22.192;2023-09-18T08:00:04;100089.81;;;22.91;74.54
68634;BME280;55625;47.072;22.192;2023-09-18T08:02:35;100079.88;;;22.81;75.76
68634;BME280;55625;47.072;22.192;2023-09-18T08:05:01;100080.38;;;22.85;75.95
68634;BME280;55625;47.072;22.192;2023-09-18T08:07:28;100086.66;;;23.00;76.41
68634;BME280;55625;47.072;22.192;2023-09-18T08:09:54;100083.09;;;23.35;74.87
68634;BME280;55625;47.072;22.192;2023-09-18T08:12:20;100089.19;;;23.78;71.65
68634;BME280;55625;47.072;22.192;2023-09-18T08:14:46;100075.50;;;24.09;68.51
68634;BME280;55625;47.072;22.192;2023-09-18T08:17:12;100077.91;;;24.40;66.47
68634;BME280;55625;47.072;22.192;2023-09-18T08:19:38;100074.50;;;24.66;65.07
68634;BME280;55625;47.072;22.192;2023-09-18T08:22:05;100073.69;;;24.90;62.97
68634;BME280;55625;47.072;22.192;2023-09-18T08:24:31;100071.81;;;25.17;63.81
68634;BME280;55625;47.072;22.192;2023-09-18T08:26:57;100067.78;;;25.45;61.29
68634;BME280;55625;47.072;22.192;2023-09-18T08:29:23;100059.81;;;25.64;57.77
68634;BME280;55625;47.072;22.192;2023-09-18T08:31:49;100063.16;;;25.74;58.61
68634;BME280;55625;47.072;22.192;2023-09-18T08:34:16;100066.72;;;25.98;60.61
68634;BME280;55625;47.072;22.192;2023-09-18T08:36:42;100058.97;;;26.20;58.79
68634;BME280;55625;47.072;22.192;2023-09-18T08:39:08;100056.91;;;26.34;59.06
68634;BME280;55625;47.072;22.192;2023-09-18T08:41:40;100045.72;;;26.51;58.44
68634;BME280;55625;47.072;22.192;2023-09-18T08:44:08;100049.13;;;26.68;58.87
68634;BME280;55625;47.072;22.192;2023-09-18T08:46:37;100045.53;;;26.75;58.53
68634;BME280;55625;47.072;22.192;2023-09-18T08:49:04;100041.50;;;26.78;56.18
68634;BME280;55625;47.072;22.192;2023-09-18T08:51:31;100050.34;;;26.86;56.75
68634;BME280;55625;47.072;22.192;2023-09-18T08:53:57;100043.31;;;27.08;56.35
68634;BME280;55625;47.072;22.192;2023-09-18T08:56:24;100040.72;;;27.31;55.69
68634;BME280;55625;47.072;22.192;2023-09-18T08:58:50;100038.69;;;27.39;53.85
68634;BME280;55625;47.072;22.192;2023-09-18T09:01:17;100041.72;;;27.33;54.28
68634;BME280;55625;47.072;22.192;2023-09-18T09:03:43;100034.31;;;27.32;51.67
68634;BME280;55625;47.072;22.192;2023-09-18T09:06:12;100041.47;;;27.44;54.50
68634;BME280;55625;47.072;22.192;2023-09-18T09:08:38;100029.78;;;27.58;52.40
68634;BME280;55625;47.072;22.192;2023-09-18T09:11:05;100031.66;;;27.68;53.55
68634;BME280;55625;47.072;22.192;2023-09-18T09:13:31;100030.97;;;27.75;50.22
68634;BME280;55625;47.072;22.192;2023-09-18T09:15:58;100022.41;;;27.77;51.41
68634;BME280;55625;47.072;22.192;2023-09-18T09:18:30;100023.59;;;27.95;51.99
68634;BME280;55625;47.072;22.192;2023-09-18T09:21:00;100025.84;;;28.10;51.13
68634;BME280;55625;47.072;22.192;2023-09-18T09:23:28;100020.59;;;28.08;46.87
68634;BME280;55625;47.072;22.192;2023-09-18T09:26:13;100015.75;;;28.11;49.30
68634;BME280;55625;47.072;22.192;2023-09-18T09:28:39;100007.41;;;28.15;49.19
68634;BME280;55625;47.072;22.192;2023-09-18T09:31:05;100010.88;;;28.27;50.61
68634;BME280;55625;47.072;22.192;2023-09-18T09:33:31;100002.41;;;28.44;50.26
68634;BME280;55625;47.072;22.192;2023-09-18T09:35:59;100000.50;;;28.47;48.54
68634;BME280;55625;47.072;22.192;2023-09-18T09:38:30;99994.19;;;28.63;50.20
68634;BME280;55625;47.072;22.192;2023-09-18T09:41:01;100000.22;;;28.86;48.61
68634;BME280;55625;47.072;22.192;2023-09-18T09:43:32;99993.47;;;28.99;50.52
68634;BME280;55625;47.072;22.192;2023-09-18T09:46:02;99991.88;;;28.98;48.93
68634;BME280;55625;47.072;22.192;2023-09-18T09:48:29;99991.28;;;28.92;47.01
68634;BME280;55625;47.072;22.192;2023-09-18T09:51:00;100001.63;;;28.93;44.22
68634;BME280;55625;47.072;22.192;2023-09-18T09:53:44;99988.34;;;28.63;45.14
68634;BME280;55625;47.072;22.192;2023-09-18T09:56:13;99988.47;;;28.50;46.20
68634;BME280;55625;47.072;22.192;2023-09-18T09:58:39;99988.16;;;28.61;44.87
68634;BME280;55625;47.072;22.192;2023-09-18T10:01:12;99983.75;;;28.75;47.82
68634;BME280;55625;47.072;22.192;2023-09-18T10:03:44;99983.25;;;28.85;46.21
68634;BME280;55625;47.072;22.192;2023-09-18T10:06:11;99973.59;;;29.05;46.87
68634;BME280;55625;47.072;22.192;2023-09-18T10:08:40;99969.75;;;29.10;46.35
68634;BME280;55625;47.072;22.192;2023-09-18T10:11:08;99969.88;;;28.97;46.23
68634;BME280;55625;47.072;22.192;2023-09-18T10:14:03;99967.28;;;28.86;45.64
68634;BME280;55625;47.072;22.192;2023-09-18T10:16:33;99979.25;;;28.74;47.08
68634;BME280;55625;47.072;22.192;2023-09-18T10:22:21;99961.44;;;29.29;47.03
68634;BME280;55625;47.072;22.192;2023-09-18T10:24:57;99953.53;;;29.53;45.71
68634;BME280;55625;47.072;22.192;2023-09-18T10:27:26;99953.91;;;29.49;44.42
68634;BME280;55625;47.072;22.192;2023-09-18T10:29:54;99952.50;;;29.43;44.73
68634;BME280;55625;47.072;22.192;2023-09-18T10:32:20;99942.91;;;29.34;43.95
68634;BME280;55625;47.072;22.192;2023-09-18T10:34:48;99946.41;;;29.25;43.06
68634;BME280;55625;47.072;22.192;2023-09-18T10:37:15;99943.69;;;29.27;43.45
68634;BME280;55625;47.072;22.192;2023-09-18T10:39:42;99930.22;;;29.17;43.17
68634;BME280;55625;47.072;22.192;2023-09-18T10:42:10;99934.16;;;29.34;44.44
68634;BME280;55625;47.072;22.192;2023-09-18T10:44:38;99934.53;;;29.38;42.26
68634;BME280;55625;47.072;22.192;2023-09-18T10:47:09;99928.47;;;29.21;43.73
68634;BME280;55625;47.072;22.192;2023-09-18T10:49:36;99933.91;;;29.10;42.86
68634;BME280;55625;47.072;22.192;2023-09-18T10:52:02;99931.94;;;29.12;44.02
68634;BME280;55625;47.072;22.192;2023-09-18T10:54:31;99917.88;;;29.03;44.64
68634;BME280;55625;47.072;22.192;2023-09-18T10:56:57;99915.81;;;28.83;44.92
68634;BME280;55625;47.072;22.192;2023-09-18T10:59:24;99909.56;;;28.79;44.89
68634;BME280;55625;47.072;22.192;2023-09-18T11:01:50;99910.72;;;29.12;45.98
68634;BME280;55625;47.072;22.192;2023-09-18T11:04:20;99903.50;;;29.20;44.25
68634;BME280;55625;47.072;22.192;2023-09-18T11:09:24;99902.16;;;29.29;43.71
68634;BME280;55625;47.072;22.192;2023-09-18T11:14:56;99893.38;;;29.21;43.96
68634;BME280;55625;47.072;22.192;2023-09-18T11:17:40;99889.75;;;29.44;43.64
68634;BME280;55625;47.072;22.192;2023-09-18T11:20:08;99897.34;;;29.39;42.38
68634;BME280;55625;47.072;22.192;2023-09-18T11:23:34;99893.09;;;29.48;44.62
68634;BME280;55625;47.072;22.192;2023-09-18T11:25:37;99878.84;;;29.59;43.81
68634;BME280;55625;47.072;22.192;2023-09-18T11:28:12;99879.25;;;29.71;44.79
68634;BME280;55625;47.072;22.192;2023-09-18T11:30:52;99877.09;;;29.79;44.05
68634;BME280;55625;47.072;22.192;2023-09-18T11:33:51;99874.75;;;29.55;42.92
68634;BME280;55625;47.072;22.192;2023-09-18T11:38:54;99870.66;;;29.58;44.78
68634;BME280;55625;47.072;22.192;2023-09-18T11:41:28;99868.50;;;29.66;42.77
68634;BME280;55625;47.072;22.192;2023-09-18T11:46:51;99863.44;;;29.89;44.67
68634;BME280;55625;47.072;22.192;2023-09-18T11:49:22;99872.03;;;29.49;43.72
68634;BME280;55625;47.072;22.192;2023-09-18T11:51:48;99866.28;;;29.21;43.97
68634;BME280;55625;47.072;22.192;2023-09-18T11:54:16;99865.91;;;29.32;44.48
68634;BME280;55625;47.072;22.192;2023-09-18T11:56:43;99865.13;;;29.24;43.50
68634;BME280;55625;47.072;22.192;2023-09-18T11:59:09;99858.25;;;29.06;43.36
68634;BME280;55625;47.072;22.192;2023-09-18T12:01:36;99857.50;;;28.69;44.73
68634;BME280;55625;47.072;22.192;2023-09-18T12:04:05;99842.53;;;28.73;43.66
68634;BME280;55625;47.072;22.192;2023-09-18T12:06:39;99846.72;;;28.93;43.29
68634;BME280;55625;47.072;22.192;2023-09-18T12:09:06;99847.78;;;29.18;44.13
68634;BME280;55625;47.072;22.192;2023-09-18T12:11:33;99845.25;;;29.37;44.35
68634;BME280;55625;47.072;22.192;2023-09-18T12:14:05;99845.91;;;29.51;44.28
68634;BME280;55625;47.072;22.192;2023-09-18T12:16:37;99821.69;;;29.66;43.05
68634;BME280;55625;47.072;22.192;2023-09-18T12:19:04;99829.66;;;29.35;42.27
68634;BME280;55625;47.072;22.192;2023-09-18T12:21:32;99825.56;;;29.30;43.16
68634;BME280;55625;47.072;22.192;2023-09-18T12:23:58;99823.22;;;29.36;43.94
68634;BME280;55625;47.072;22.192;2023-09-18T12:26:25;99829.31;;;29.54;44.48
68634;BME280;55625;47.072;22.192;2023-09-18T12:28:52;99820.34;;;29.67;42.82
68634;BME280;55625;47.072;22.192;2023-09-18T12:31:18;99802.59;;;29.65;41.68
68634;BME280;55625;47.072;22.192;2023-09-18T12:33:44;99807.22;;;29.30;41.81
68634;BME280;55625;47.072;22.192;2023-09-18T12:36:12;99811.34;;;29.42;42.91
68634;BME280;55625;47.072;22.192;2023-09-18T12:38:40;99809.97;;;29.20;42.37
68634;BME280;55625;47.072;22.192;2023-09-18T12:41:06;99809.19;;;29.35;43.35
68634;BME280;55625;47.072;22.192;2023-09-18T12:43:38;99808.47;;;29.50;44.08
68634;BME280;55625;47.072;22.192;2023-09-18T12:46:06;99804.50;;;29.32;43.17
68634;BME280;55625;47.072;22.192;2023-09-18T12:48:36;99806.91;;;29.49;43.09
68634;BME280;55625;47.072;22.192;2023-09-18T12:51:06;99794.41;;;29.56;43.10
68634;BME280;55625;47.072;22.192;2023-09-18T12:53:32;99797.91;;;29.62;44.30
68634;BME280;55625;47.072;22.192;2023-09-18T12:56:11;99796.75;;;29.50;43.43
68634;BME280;55625;47.072;22.192;2023-09-18T12:58:41;99796.38;;;29.46;43.12